sensor_id;sensor_type;location;lat;lon;timestamp;P1;durP1;ratioP1;P2;durP2;ratioP2
20014;SDS011;61787;42.022;23.078;2023-03-20T00:00:22;10.63;;;7.20;;
20014;SDS011;61787;42.022;23.078;2023-03-20T00:01:29;11.23;;;6.47;;
20014;SDS011;61787;42.022;23.078;2023-03-20T00:02:32;11.33;;;6.40;;
20014;SDS011;61787;42.022;23.078;2023-03-20T00:03:34;10.03;;;5.97;;
20014;SDS011;61787;42.022;23.078;2023-03-20T00:04:35;9.50;;;5.93;;
20014;SDS011;61787;42.022;23.078;2023-03-20T00:05:37;9.40;;;6.10;;
20014;SDS011;61787;42.022;23.078;2023-03-20T00:06:40;9.20;;;6.00;;
20014;SDS011;61787;42.022;23.078;2023-03-20T00:07:41;10.17;;;6.37;;
20014;SDS011;61787;42.022;23.078;2023-03-20T00:08:44;11.63;;;6.87;;
20014;SDS011;61787;42.022;23.078;2023-03-20T00:09:47;9.57;;;6.90;;
20014;SDS011;61787;42.022;23.078;2023-03-20T00:10:49;9.83;;;7.30;;
20014;SDS011;61787;42.022;23.078;2023-03-20T00:11:52;9.13;;;7.07;;
20014;SDS011;61787;42.022;23.078;2023-03-20T00:12:55;12.77;;;7.47;;
20014;SDS011;61787;42.022;23.078;2023-03-20T00:14:07;10.60;;;7.30;;
20014;SDS011;61787;42.022;23.078;2023-03-20T00:15:21;12.47;;;9.20;;
20014;SDS011;61787;42.022;23.078;2023-03-20T00:16:24;13.77;;;9.43;;
20014;SDS011;61787;42.022;23.078;2023-03-20T00:17:30;14.63;;;9.63;;
20014;SDS011;61787;42.022;23.078;2023-03-20T00:18:31;13.67;;;8.87;;
20014;SDS011;61787;42.022;23.078;2023-03-20T00:19:33;13.27;;;9.20;;
20014;SDS011;61787;42.022;23.078;2023-03-20T00:20:35;15.13;;;9.27;;
20014;SDS011;61787;42.022;23.078;2023-03-20T00:21:37;12.60;;;8.80;;
20014;SDS011;61787;42.022;23.078;2023-03-20T00:22:39;13.33;;;8.37;;
20014;SDS011;61787;42.022;23.078;2023-03-20T00:23:40;12.70;;;8.57;;
20014;SDS011;61787;42.022;23.078;2023-03-20T00:24:42;13.50;;;8.63;;
20014;SDS011;61787;42.022;23.078;2023-03-20T00:25:44;13.53;;;9.53;;
20014;SDS011;61787;42.022;23.078;2023-03-20T00:26:47;11.53;;;8.70;;
20014;SDS011;61787;42.022;23.078;2023-03-20T00:27:50;10.83;;;8.10;;
20014;SDS011;61787;42.022;23.078;2023-03-20T00:28:52;14.13;;;8.93;;
20014;SDS011;61787;42.022;23.078;2023-03-20T00:29:54;12.57;;;8.27;;
20014;SDS011;61787;42.022;23.078;2023-03-20T00:30:55;13.17;;;8.87;;
20014;SDS011;61787;42.022;23.078;2023-03-20T00:31:57;13.40;;;8.50;;
20014;SDS011;61787;42.022;23.078;2023-03-20T00:32:59;10.80;;;7.67;;
20014;SDS011;61787;42.022;23.078;2023-03-20T00:34:02;12.57;;;8.43;;
20014;SDS011;61787;42.022;23.078;2023-03-20T00:35:19;12.10;;;8.43;;
20014;SDS011;61787;42.022;23.078;2023-03-20T00:36:26;10.70;;;7.67;;
20014;SDS011;61787;42.022;23.078;2023-03-20T00:37:28;11.10;;;7.67;;
20014;SDS011;61787;42.022;23.078;2023-03-20T00:38:30;12.30;;;7.33;;
20014;SDS011;61787;42.022;23.078;2023-03-20T00:39:31;12.50;;;8.23;;
20014;SDS011;61787;42.022;23.078;2023-03-20T00:40:34;10.20;;;7.57;;
20014;SDS011;61787;42.022;23.078;2023-03-20T00:43:16;11.13;;;7.73;;
20014;SDS011;61787;42.022;23.078;2023-03-20T00:44:29;15.30;;;8.67;;
20014;SDS011;61787;42.022;23.078;2023-03-20T00:45:32;11.70;;;8.57;;
20014;SDS011;61787;42.022;23.078;2023-03-20T00:46:36;11.27;;;8.30;;
20014;SDS011;61787;42.022;23.078;2023-03-20T00:47:39;12.70;;;8.10;;
20014;SDS011;61787;42.022;23.078;2023-03-20T00:48:42;11.17;;;8.27;;
20014;SDS011;61787;42.022;23.078;2023-03-20T00:49:44;12.60;;;8.13;;
20014;SDS011;61787;42.022;23.078;2023-03-20T00:50:48;12.07;;;8.27;;
20014;SDS011;61787;42.022;23.078;2023-03-20T00:51:49;10.77;;;8.03;;
20014;SDS011;61787;42.022;23.078;2023-03-20T00:52:51;12.80;;;8.17;;
20014;SDS011;61787;42.022;23.078;2023-03-20T00:53:53;11.27;;;7.70;;
20014;SDS011;61787;42.022;23.078;2023-03-20T00:54:55;15.53;;;8.17;;
20014;SDS011;61787;42.022;23.078;2023-03-20T00:55:56;11.73;;;8.00;;
20014;SDS011;61787;42.022;23.078;2023-03-20T00:57:59;10.73;;;7.50;;
20014;SDS011;61787;42.022;23.078;2023-03-20T00:58:38;10.70;;;7.60;;
20014;SDS011;61787;42.022;23.078;2023-03-20T00:59:41;14.00;;;7.40;;
20014;SDS011;61787;42.022;23.078;2023-03-20T01:00:52;10.47;;;7.57;;
20014;SDS011;61787;42.022;23.078;2023-03-20T01:01:54;11.77;;;7.23;;
20014;SDS011;61787;42.022;23.078;2023-03-20T01:02:56;10.23;;;7.30;;
20014;SDS011;61787;42.022;23.078;2023-03-20T01:03:59;10.60;;;7.13;;
20014;SDS011;61787;42.022;23.078;2023-03-20T01:05:01;10.70;;;7.13;;
20014;SDS011;61787;42.022;23.078;2023-03-20T01:06:04;9.80;;;7.27;;
20014;SDS011;61787;42.022;23.078;2023-03-20T01:07:06;11.50;;;7.10;;
20014;SDS011;61787;42.022;23.078;2023-03-20T01:08:11;12.10;;;7.93;;
20014;SDS011;61787;42.022;23.078;2023-03-20T01:09:18;10.17;;;7.33;;
20014;SDS011;61787;42.022;23.078;2023-03-20T01:10:19;11.37;;;7.10;;
20014;SDS011;61787;42.022;23.078;2023-03-20T01:11:21;10.27;;;7.37;;
20014;SDS011;61787;42.022;23.078;2023-03-20T01:12:24;9.43;;;6.77;;
20014;SDS011;61787;42.022;23.078;2023-03-20T01:13:27;9.33;;;6.80;;
20014;SDS011;61787;42.022;23.078;2023-03-20T01:14:30;10.13;;;6.80;;
20014;SDS011;61787;42.022;23.078;2023-03-20T01:15:32;12.13;;;7.67;;
20014;SDS011;61787;42.022;23.078;2023-03-20T01:16:34;10.17;;;7.10;;
20014;SDS011;61787;42.022;23.078;2023-03-20T01:17:36;10.23;;;6.60;;
20014;SDS011;61787;42.022;23.078;2023-03-20T01:18:38;7.93;;;6.03;;
20014;SDS011;61787;42.022;23.078;2023-03-20T01:19:39;8.63;;;6.27;;
20014;SDS011;61787;42.022;23.078;2023-03-20T01:20:41;10.50;;;6.60;;
20014;SDS011;61787;42.022;23.078;2023-03-20T01:21:43;8.83;;;6.30;;
20014;SDS011;61787;42.022;23.078;2023-03-20T01:22:45;9.93;;;7.00;;
20014;SDS011;61787;42.022;23.078;2023-03-20T01:23:47;9.40;;;6.57;;
20014;SDS011;61787;42.022;23.078;2023-03-20T01:24:50;9.57;;;6.93;;
20014;SDS011;61787;42.022;23.078;2023-03-20T01:25:52;9.20;;;7.07;;
20014;SDS011;61787;42.022;23.078;2023-03-20T01:26:53;11.43;;;7.53;;
20014;SDS011;61787;42.022;23.078;2023-03-20T01:27:55;9.77;;;7.00;;
20014;SDS011;61787;42.022;23.078;2023-03-20T01:28:58;10.10;;;8.00;;
20014;SDS011;61787;42.022;23.078;2023-03-20T01:30:00;11.20;;;7.90;;
20014;SDS011;61787;42.022;23.078;2023-03-20T01:31:01;11.40;;;7.77;;
20014;SDS011;61787;42.022;23.078;2023-03-20T01:32:04;9.17;;;7.10;;
20014;SDS011;61787;42.022;23.078;2023-03-20T01:33:16;9.17;;;7.17;;
20014;SDS011;61787;42.022;23.078;2023-03-20T01:34:19;9.30;;;7.13;;
20014;SDS011;61787;42.022;23.078;2023-03-20T01:35:22;11.70;;;7.50;;
20014;SDS011;61787;42.022;23.078;2023-03-20T01:36:26;10.27;;;7.67;;
20014;SDS011;61787;42.022;23.078;2023-03-20T01:37:28;13.13;;;8.87;;
20014;SDS011;61787;42.022;23.078;2023-03-20T01:38:29;17.10;;;9.40;;
20014;SDS011;61787;42.022;23.078;2023-03-20T01:39:32;12.03;;;8.63;;
20014;SDS011;61787;42.022;23.078;2023-03-20T01:40:39;10.23;;;7.83;;
20014;SDS011;61787;42.022;23.078;2023-03-20T01:41:49;11.30;;;8.53;;
20014;SDS011;61787;42.022;23.078;2023-03-20T01:42:52;11.57;;;8.80;;
20014;SDS011;61787;42.022;23.078;2023-03-20T01:43:54;10.87;;;8.33;;
20014;SDS011;61787;42.022;23.078;2023-03-20T01:44:56;12.20;;;8.37;;
20014;SDS011;61787;42.022;23.078;2023-03-20T01:47:21;14.83;;;8.53;;
20014;SDS011;61787;42.022;23.078;2023-03-20T01:48:26;13.70;;;9.77;;
20014;SDS011;61787;42.022;23.078;2023-03-20T01:51:24;17.13;;;9.63;;
20014;SDS011;61787;42.022;23.078;2023-03-20T01:52:29;14.33;;;10.53;;
20014;SDS011;61787;42.022;23.078;2023-03-20T01:53:31;14.10;;;9.80;;
20014;SDS011;61787;42.022;23.078;2023-03-20T01:54:36;16.33;;;10.33;;
20014;SDS011;61787;42.022;23.078;2023-03-20T01:55:40;13.87;;;9.43;;
20014;SDS011;61787;42.022;23.078;2023-03-20T01:56:53;15.70;;;10.00;;
20014;SDS011;61787;42.022;23.078;2023-03-20T01:58:01;13.57;;;9.37;;
20014;SDS011;61787;42.022;23.078;2023-03-20T01:59:10;15.03;;;10.00;;
20014;SDS011;61787;42.022;23.078;2023-03-20T02:00:17;15.10;;;9.07;;
20014;SDS011;61787;42.022;23.078;2023-03-20T02:01:19;13.13;;;10.10;;
20014;SDS011;61787;42.022;23.078;2023-03-20T02:02:22;13.10;;;9.37;;
20014;SDS011;61787;42.022;23.078;2023-03-20T02:03:27;13.40;;;8.73;;
20014;SDS011;61787;42.022;23.078;2023-03-20T02:04:29;13.33;;;9.07;;
20014;SDS011;61787;42.022;23.078;2023-03-20T02:05:37;12.57;;;9.27;;
20014;SDS011;61787;42.022;23.078;2023-03-20T02:06:39;14.93;;;9.77;;
20014;SDS011;61787;42.022;23.078;2023-03-20T02:07:42;14.77;;;10.40;;
20014;SDS011;61787;42.022;23.078;2023-03-20T02:08:50;16.63;;;10.57;;
20014;SDS011;61787;42.022;23.078;2023-03-20T02:09:53;13.40;;;9.60;;
20014;SDS011;61787;42.022;23.078;2023-03-20T02:10:55;16.03;;;10.53;;
20014;SDS011;61787;42.022;23.078;2023-03-20T02:11:58;14.30;;;9.90;;
20014;SDS011;61787;42.022;23.078;2023-03-20T02:13:01;15.10;;;10.10;;
20014;SDS011;61787;42.022;23.078;2023-03-20T02:14:04;15.53;;;10.70;;
20014;SDS011;61787;42.022;23.078;2023-03-20T02:15:08;15.73;;;10.47;;
20014;SDS011;61787;42.022;23.078;2023-03-20T02:16:13;15.63;;;10.40;;
20014;SDS011;61787;42.022;23.078;2023-03-20T02:17:15;17.70;;;10.50;;
20014;SDS011;61787;42.022;23.078;2023-03-20T02:18:17;16.50;;;10.37;;
20014;SDS011;61787;42.022;23.078;2023-03-20T02:27:49;15.57;;;9.63;;
20014;SDS011;61787;42.022;23.078;2023-03-20T02:35:22;14.93;;;9.77;;
20014;SDS011;61787;42.022;23.078;2023-03-20T02:37:58;16.70;;;10.40;;
20014;SDS011;61787;42.022;23.078;2023-03-20T02:41:04;14.03;;;9.67;;
20014;SDS011;61787;42.022;23.078;2023-03-20T02:42:24;14.60;;;9.27;;
20014;SDS011;61787;42.022;23.078;2023-03-20T02:50:14;13.33;;;9.77;;
20014;SDS011;61787;42.022;23.078;2023-03-20T02:54:52;14.30;;;9.57;;
20014;SDS011;61787;42.022;23.078;2023-03-20T02:56:00;16.67;;;10.20;;
20014;SDS011;61787;42.022;23.078;2023-03-20T02:58:27;11.13;;;9.20;;
20014;SDS011;61787;42.022;23.078;2023-03-20T02:59:43;14.60;;;9.67;;
20014;SDS011;61787;42.022;23.078;2023-03-20T03:00:55;16.53;;;9.73;;
20014;SDS011;61787;42.022;23.078;2023-03-20T03:02:07;13.90;;;9.57;;
20014;SDS011;61787;42.022;23.078;2023-03-20T03:03:20;13.67;;;9.53;;
20014;SDS011;61787;42.022;23.078;2023-03-20T03:04:30;14.77;;;10.30;;
20014;SDS011;61787;42.022;23.078;2023-03-20T03:05:41;15.67;;;10.30;;
20014;SDS011;61787;42.022;23.078;2023-03-20T03:06:49;15.23;;;9.73;;
20014;SDS011;61787;42.022;23.078;2023-03-20T03:07:56;12.93;;;9.57;;
20014;SDS011;61787;42.022;23.078;2023-03-20T03:10:16;14.43;;;9.67;;
20014;SDS011;61787;42.022;23.078;2023-03-20T03:11:22;20.67;;;11.00;;
20014;SDS011;61787;42.022;23.078;2023-03-20T03:12:26;15.93;;;10.60;;
20014;SDS011;61787;42.022;23.078;2023-03-20T03:13:33;15.97;;;9.83;;
20014;SDS011;61787;42.022;23.078;2023-03-20T03:14:39;16.57;;;10.50;;
20014;SDS011;61787;42.022;23.078;2023-03-20T03:15:45;13.57;;;10.03;;
20014;SDS011;61787;42.022;23.078;2023-03-20T03:16:51;16.07;;;10.87;;
20014;SDS011;61787;42.022;23.078;2023-03-20T03:17:54;17.23;;;10.17;;
20014;SDS011;61787;42.022;23.078;2023-03-20T03:19:18;15.67;;;10.80;;
20014;SDS011;61787;42.022;23.078;2023-03-20T03:20:24;17.57;;;10.97;;
20014;SDS011;61787;42.022;23.078;2023-03-20T03:21:30;17.03;;;11.27;;
20014;SDS011;61787;42.022;23.078;2023-03-20T03:22:33;18.07;;;11.30;;
20014;SDS011;61787;42.022;23.078;2023-03-20T03:23:41;17.03;;;10.67;;
20014;SDS011;61787;42.022;23.078;2023-03-20T03:24:48;16.47;;;11.30;;
20014;SDS011;61787;42.022;23.078;2023-03-20T03:25:51;17.30;;;11.13;;
20014;SDS011;61787;42.022;23.078;2023-03-20T03:26:55;18.70;;;11.47;;
20014;SDS011;61787;42.022;23.078;2023-03-20T03:28:17;17.90;;;11.70;;
20014;SDS011;61787;42.022;23.078;2023-03-20T03:29:22;15.13;;;10.73;;
20014;SDS011;61787;42.022;23.078;2023-03-20T03:30:27;16.37;;;11.20;;
20014;SDS011;61787;42.022;23.078;2023-03-20T03:31:33;15.33;;;10.53;;
20014;SDS011;61787;42.022;23.078;2023-03-20T03:32:39;17.37;;;10.90;;
20014;SDS011;61787;42.022;23.078;2023-03-20T03:33:48;16.93;;;10.97;;
20014;SDS011;61787;42.022;23.078;2023-03-20T03:34:53;15.53;;;10.73;;
20014;SDS011;61787;42.022;23.078;2023-03-20T03:36:08;15.03;;;10.80;;
20014;SDS011;61787;42.022;23.078;2023-03-20T03:37:28;15.37;;;11.03;;
20014;SDS011;61787;42.022;23.078;2023-03-20T03:39:00;16.20;;;10.87;;
20014;SDS011;61787;42.022;23.078;2023-03-20T03:41:45;17.77;;;10.43;;
20014;SDS011;61787;42.022;23.078;2023-03-20T03:43:00;16.93;;;10.77;;
20014;SDS011;61787;42.022;23.078;2023-03-20T03:44:25;20.43;;;10.80;;
20014;SDS011;61787;42.022;23.078;2023-03-20T03:45:43;16.03;;;11.07;;
20014;SDS011;61787;42.022;23.078;2023-03-20T03:46:51;15.17;;;10.50;;
20014;SDS011;61787;42.022;23.078;2023-03-20T03:48:02;13.80;;;10.63;;
20014;SDS011;61787;42.022;23.078;2023-03-20T03:49:13;14.07;;;9.53;;
20014;SDS011;61787;42.022;23.078;2023-03-20T03:50:22;15.73;;;10.93;;
20014;SDS011;61787;42.022;23.078;2023-03-20T03:51:29;14.53;;;10.73;;
20014;SDS011;61787;42.022;23.078;2023-03-20T03:52:33;16.30;;;11.00;;
20014;SDS011;61787;42.022;23.078;2023-03-20T03:53:36;15.40;;;10.13;;
20014;SDS011;61787;42.022;23.078;2023-03-20T03:54:44;15.80;;;10.77;;
20014;SDS011;61787;42.022;23.078;2023-03-20T03:55:50;15.23;;;9.93;;
20014;SDS011;61787;42.022;23.078;2023-03-20T03:56:55;15.97;;;11.07;;
20014;SDS011;61787;42.022;23.078;2023-03-20T03:58:00;15.20;;;10.37;;
20014;SDS011;61787;42.022;23.078;2023-03-20T03:59:11;14.43;;;10.53;;
20014;SDS011;61787;42.022;23.078;2023-03-20T04:00:20;15.07;;;10.27;;
20014;SDS011;61787;42.022;23.078;2023-03-20T04:01:25;13.70;;;9.67;;
20014;SDS011;61787;42.022;23.078;2023-03-20T04:02:29;13.27;;;10.00;;
20014;SDS011;61787;42.022;23.078;2023-03-20T04:03:31;14.47;;;10.10;;
20014;SDS011;61787;42.022;23.078;2023-03-20T04:04:38;14.87;;;10.70;;
20014;SDS011;61787;42.022;23.078;2023-03-20T04:05:43;12.80;;;9.57;;
20014;SDS011;61787;42.022;23.078;2023-03-20T04:06:47;14.27;;;9.30;;
20014;SDS011;61787;42.022;23.078;2023-03-20T04:07:52;12.87;;;9.20;;
20014;SDS011;61787;42.022;23.078;2023-03-20T04:08:55;13.63;;;9.50;;
20014;SDS011;61787;42.022;23.078;2023-03-20T04:09:57;14.70;;;10.03;;
20014;SDS011;61787;42.022;23.078;2023-03-20T04:10:58;14.63;;;9.67;;
20014;SDS011;61787;42.022;23.078;2023-03-20T04:12:00;11.97;;;8.90;;
20014;SDS011;61787;42.022;23.078;2023-03-20T04:13:02;13.23;;;9.20;;
20014;SDS011;61787;42.022;23.078;2023-03-20T04:14:04;12.57;;;9.30;;
20014;SDS011;61787;42.022;23.078;2023-03-20T04:15:05;13.37;;;8.97;;
20014;SDS011;61787;42.022;23.078;2023-03-20T04:16:11;13.00;;;8.63;;
20014;SDS011;61787;42.022;23.078;2023-03-20T04:17:17;14.73;;;9.57;;
20014;SDS011;61787;42.022;23.078;2023-03-20T04:18:18;13.13;;;9.50;;
20014;SDS011;61787;42.022;23.078;2023-03-20T04:19:20;12.47;;;9.37;;
20014;SDS011;61787;42.022;23.078;2023-03-20T04:20:22;13.93;;;9.20;;
20014;SDS011;61787;42.022;23.078;2023-03-20T04:21:23;20.07;;;10.37;;
20014;SDS011;61787;42.022;23.078;2023-03-20T04:22:25;13.27;;;9.60;;
20014;SDS011;61787;42.022;23.078;2023-03-20T04:23:27;16.37;;;10.03;;
20014;SDS011;61787;42.022;23.078;2023-03-20T04:24:29;14.93;;;10.20;;
20014;SDS011;61787;42.022;23.078;2023-03-20T04:25:30;15.77;;;10.03;;
20014;SDS011;61787;42.022;23.078;2023-03-20T04:26:32;15.00;;;10.30;;
20014;SDS011;61787;42.022;23.078;2023-03-20T04:27:33;14.50;;;9.83;;
20014;SDS011;61787;42.022;23.078;2023-03-20T04:28:36;18.73;;;10.13;;
20014;SDS011;61787;42.022;23.078;2023-03-20T04:29:37;16.13;;;10.47;;
20014;SDS011;61787;42.022;23.078;2023-03-20T04:30:39;15.43;;;10.13;;
20014;SDS011;61787;42.022;23.078;2023-03-20T04:31:41;14.63;;;9.53;;
20014;SDS011;61787;42.022;23.078;2023-03-20T04:32:42;15.03;;;10.30;;
20014;SDS011;61787;42.022;23.078;2023-03-20T04:33:44;15.50;;;10.03;;
20014;SDS011;61787;42.022;23.078;2023-03-20T04:34:46;14.43;;;10.27;;
20014;SDS011;61787;42.022;23.078;2023-03-20T04:35:47;14.60;;;10.00;;
20014;SDS011;61787;42.022;23.078;2023-03-20T04:36:49;14.47;;;9.77;;
20014;SDS011;61787;42.022;23.078;2023-03-20T04:37:50;12.80;;;9.43;;
20014;SDS011;61787;42.022;23.078;2023-03-20T04:38:52;15.13;;;10.37;;
20014;SDS011;61787;42.022;23.078;2023-03-20T04:39:57;15.73;;;10.67;;
20014;SDS011;61787;42.022;23.078;2023-03-20T04:40:59;14.77;;;9.63;;
20014;SDS011;61787;42.022;23.078;2023-03-20T04:42:01;12.90;;;9.73;;
20014;SDS011;61787;42.022;23.078;2023-03-20T04:43:03;15.90;;;9.30;;
20014;SDS011;61787;42.022;23.078;2023-03-20T04:44:05;12.50;;;9.10;;
20014;SDS011;61787;42.022;23.078;2023-03-20T04:45:07;13.93;;;9.03;;
20014;SDS011;61787;42.022;23.078;2023-03-20T04:46:09;12.37;;;9.17;;
20014;SDS011;61787;42.022;23.078;2023-03-20T04:47:11;10.90;;;8.13;;
20014;SDS011;61787;42.022;23.078;2023-03-20T04:48:12;13.70;;;8.73;;
20014;SDS011;61787;42.022;23.078;2023-03-20T04:49:14;13.87;;;9.73;;
20014;SDS011;61787;42.022;23.078;2023-03-20T04:50:16;18.93;;;9.47;;
20014;SDS011;61787;42.022;23.078;2023-03-20T04:51:17;12.50;;;9.40;;
20014;SDS011;61787;42.022;23.078;2023-03-20T04:52:19;14.07;;;9.37;;
20014;SDS011;61787;42.022;23.078;2023-03-20T04:53:21;13.47;;;9.07;;
20014;SDS011;61787;42.022;23.078;2023-03-20T04:54:23;13.70;;;9.47;;
20014;SDS011;61787;42.022;23.078;2023-03-20T04:55:25;14.97;;;9.00;;
20014;SDS011;61787;42.022;23.078;2023-03-20T04:56:27;14.90;;;9.50;;
20014;SDS011;61787;42.022;23.078;2023-03-20T04:57:28;14.20;;;9.77;;
20014;SDS011;61787;42.022;23.078;2023-03-20T04:58:32;13.03;;;9.17;;
20014;SDS011;61787;42.022;23.078;2023-03-20T04:59:36;14.47;;;10.23;;
20014;SDS011;61787;42.022;23.078;2023-03-20T05:00:37;15.63;;;10.07;;
20014;SDS011;61787;42.022;23.078;2023-03-20T05:01:39;12.97;;;9.23;;
20014;SDS011;61787;42.022;23.078;2023-03-20T05:02:41;14.57;;;9.93;;
20014;SDS011;61787;42.022;23.078;2023-03-20T05:03:43;15.20;;;10.37;;
20014;SDS011;61787;42.022;23.078;2023-03-20T05:04:44;13.03;;;9.43;;
20014;SDS011;61787;42.022;23.078;2023-03-20T05:05:46;13.83;;;9.73;;
20014;SDS011;61787;42.022;23.078;2023-03-20T05:06:48;14.43;;;10.10;;
20014;SDS011;61787;42.022;23.078;2023-03-20T05:07:50;14.27;;;9.47;;
20014;SDS011;61787;42.022;23.078;2023-03-20T05:08:52;15.40;;;9.50;;
20014;SDS011;61787;42.022;23.078;2023-03-20T05:09:53;11.97;;;8.17;;
20014;SDS011;61787;42.022;23.078;2023-03-20T05:10:55;10.70;;;8.47;;
20014;SDS011;61787;42.022;23.078;2023-03-20T05:11:57;14.30;;;8.43;;
20014;SDS011;61787;42.022;23.078;2023-03-20T05:12:58;11.93;;;7.90;;
20014;SDS011;61787;42.022;23.078;2023-03-20T05:14:00;11.67;;;8.20;;
20014;SDS011;61787;42.022;23.078;2023-03-20T05:15:02;12.40;;;7.90;;
20014;SDS011;61787;42.022;23.078;2023-03-20T05:16:04;12.80;;;8.43;;
20014;SDS011;61787;42.022;23.078;2023-03-20T05:17:06;12.27;;;8.90;;
20014;SDS011;61787;42.022;23.078;2023-03-20T05:18:07;12.03;;;8.50;;
20014;SDS011;61787;42.022;23.078;2023-03-20T05:19:09;11.13;;;7.80;;
20014;SDS011;61787;42.022;23.078;2023-03-20T05:20:11;13.07;;;8.80;;
20014;SDS011;61787;42.022;23.078;2023-03-20T05:21:13;12.27;;;8.37;;
20014;SDS011;61787;42.022;23.078;2023-03-20T05:22:16;10.63;;;8.33;;
20014;SDS011;61787;42.022;23.078;2023-03-20T05:23:17;12.13;;;9.07;;
20014;SDS011;61787;42.022;23.078;2023-03-20T05:24:19;11.40;;;8.90;;
20014;SDS011;61787;42.022;23.078;2023-03-20T05:25:21;12.70;;;9.23;;
20014;SDS011;61787;42.022;23.078;2023-03-20T05:26:23;13.33;;;9.30;;
20014;SDS011;61787;42.022;23.078;2023-03-20T05:27:24;13.43;;;10.17;;
20014;SDS011;61787;42.022;23.078;2023-03-20T05:28:26;12.80;;;9.13;;
20014;SDS011;61787;42.022;23.078;2023-03-20T05:29:28;17.20;;;10.17;;
20014;SDS011;61787;42.022;23.078;2023-03-20T05:30:30;12.53;;;9.33;;
20014;SDS011;61787;42.022;23.078;2023-03-20T05:31:32;13.83;;;9.00;;
20014;SDS011;61787;42.022;23.078;2023-03-20T05:32:33;12.57;;;9.03;;
20014;SDS011;61787;42.022;23.078;2023-03-20T05:33:37;14.20;;;9.77;;
20014;SDS011;61787;42.022;23.078;2023-03-20T05:34:38;13.73;;;9.93;;
20014;SDS011;61787;42.022;23.078;2023-03-20T05:35:40;15.57;;;9.77;;
20014;SDS011;61787;42.022;23.078;2023-03-20T05:36:42;14.50;;;9.50;;
20014;SDS011;61787;42.022;23.078;2023-03-20T05:37:44;13.40;;;9.27;;
20014;SDS011;61787;42.022;23.078;2023-03-20T05:38:45;14.17;;;9.57;;
20014;SDS011;61787;42.022;23.078;2023-03-20T05:39:47;16.00;;;9.50;;
20014;SDS011;61787;42.022;23.078;2023-03-20T05:40:49;13.20;;;9.10;;
20014;SDS011;61787;42.022;23.078;2023-03-20T05:41:50;14.43;;;9.83;;
20014;SDS011;61787;42.022;23.078;2023-03-20T05:42:52;15.70;;;9.97;;
20014;SDS011;61787;42.022;23.078;2023-03-20T05:43:53;12.43;;;9.60;;
20014;SDS011;61787;42.022;23.078;2023-03-20T05:44:55;14.10;;;10.40;;
20014;SDS011;61787;42.022;23.078;2023-03-20T05:45:57;15.73;;;9.93;;
20014;SDS011;61787;42.022;23.078;2023-03-20T05:46:59;12.23;;;9.33;;
20014;SDS011;61787;42.022;23.078;2023-03-20T05:48:00;12.17;;;9.30;;
20014;SDS011;61787;42.022;23.078;2023-03-20T05:49:02;15.83;;;9.63;;
20014;SDS011;61787;42.022;23.078;2023-03-20T05:50:03;15.17;;;9.63;;
20014;SDS011;61787;42.022;23.078;2023-03-20T05:51:05;15.93;;;10.57;;
20014;SDS011;61787;42.022;23.078;2023-03-20T05:52:07;13.50;;;9.50;;
20014;SDS011;61787;42.022;23.078;2023-03-20T05:53:09;15.67;;;9.47;;
20014;SDS011;61787;42.022;23.078;2023-03-20T05:54:10;13.10;;;9.43;;
20014;SDS011;61787;42.022;23.078;2023-03-20T05:55:12;14.30;;;9.30;;
20014;SDS011;61787;42.022;23.078;2023-03-20T05:56:14;12.43;;;9.40;;
20014;SDS011;61787;42.022;23.078;2023-03-20T05:57:16;13.77;;;7.43;;
20014;SDS011;61787;42.022;23.078;2023-03-20T05:58:17;13.53;;;8.73;;
20014;SDS011;61787;42.022;23.078;2023-03-20T05:59:19;15.40;;;9.53;;
20014;SDS011;61787;42.022;23.078;2023-03-20T06:00:21;16.13;;;9.60;;
20014;SDS011;61787;42.022;23.078;2023-03-20T06:01:23;13.43;;;9.17;;
20014;SDS011;61787;42.022;23.078;2023-03-20T06:02:25;12.63;;;9.37;;
20014;SDS011;61787;42.022;23.078;2023-03-20T06:03:27;14.43;;;9.50;;
20014;SDS011;61787;42.022;23.078;2023-03-20T06:04:29;14.13;;;9.93;;
20014;SDS011;61787;42.022;23.078;2023-03-20T06:05:31;13.73;;;9.20;;
20014;SDS011;61787;42.022;23.078;2023-03-20T06:06:33;14.30;;;9.50;;
20014;SDS011;61787;42.022;23.078;2023-03-20T06:07:38;16.10;;;9.43;;
20014;SDS011;61787;42.022;23.078;2023-03-20T06:08:39;15.60;;;10.13;;
20014;SDS011;61787;42.022;23.078;2023-03-20T06:09:41;17.73;;;11.47;;
20014;SDS011;61787;42.022;23.078;2023-03-20T06:10:43;17.77;;;11.53;;
20014;SDS011;61787;42.022;23.078;2023-03-20T06:11:44;19.23;;;11.93;;
20014;SDS011;61787;42.022;23.078;2023-03-20T06:12:46;25.70;;;12.53;;
20014;SDS011;61787;42.022;23.078;2023-03-20T06:13:48;27.43;;;14.27;;
20014;SDS011;61787;42.022;23.078;2023-03-20T06:14:50;24.63;;;14.40;;
20014;SDS011;61787;42.022;23.078;2023-03-20T06:15:52;23.87;;;14.77;;
20014;SDS011;61787;42.022;23.078;2023-03-20T06:16:54;31.53;;;16.13;;
20014;SDS011;61787;42.022;23.078;2023-03-20T06:17:57;27.67;;;15.37;;
20014;SDS011;61787;42.022;23.078;2023-03-20T06:18:59;27.80;;;14.63;;
20014;SDS011;61787;42.022;23.078;2023-03-20T06:20:01;24.30;;;13.47;;
20014;SDS011;61787;42.022;23.078;2023-03-20T06:21:03;24.93;;;13.27;;
20014;SDS011;61787;42.022;23.078;2023-03-20T06:22:06;24.63;;;13.57;;
20014;SDS011;61787;42.022;23.078;2023-03-20T06:23:08;26.53;;;14.40;;
20014;SDS011;61787;42.022;23.078;2023-03-20T06:24:09;23.90;;;14.20;;
20014;SDS011;61787;42.022;23.078;2023-03-20T06:25:11;27.37;;;16.07;;
20014;SDS011;61787;42.022;23.078;2023-03-20T06:26:13;26.87;;;15.57;;
20014;SDS011;61787;42.022;23.078;2023-03-20T06:27:15;23.87;;;14.63;;
20014;SDS011;61787;42.022;23.078;2023-03-20T06:28:17;20.77;;;14.37;;
20014;SDS011;61787;42.022;23.078;2023-03-20T06:29:19;26.07;;;14.00;;
20014;SDS011;61787;42.022;23.078;2023-03-20T06:30:20;25.33;;;14.33;;
20014;SDS011;61787;42.022;23.078;2023-03-20T06:31:22;25.87;;;13.17;;
20014;SDS011;61787;42.022;23.078;2023-03-20T06:32:24;21.80;;;13.03;;
20014;SDS011;61787;42.022;23.078;2023-03-20T06:33:27;19.63;;;12.20;;
20014;SDS011;61787;42.022;23.078;2023-03-20T06:34:29;18.73;;;12.07;;
20014;SDS011;61787;42.022;23.078;2023-03-20T06:35:30;18.77;;;11.77;;
20014;SDS011;61787;42.022;23.078;2023-03-20T06:36:32;19.20;;;11.10;;
20014;SDS011;61787;42.022;23.078;2023-03-20T06:37:34;21.83;;;11.10;;
20014;SDS011;61787;42.022;23.078;2023-03-20T06:38:36;23.10;;;11.30;;
20014;SDS011;61787;42.022;23.078;2023-03-20T06:39:38;16.60;;;10.43;;
20014;SDS011;61787;42.022;23.078;2023-03-20T06:40:40;16.63;;;10.97;;
20014;SDS011;61787;42.022;23.078;2023-03-20T06:41:42;17.60;;;11.13;;
20014;SDS011;61787;42.022;23.078;2023-03-20T06:42:43;20.10;;;10.83;;
20014;SDS011;61787;42.022;23.078;2023-03-20T06:43:45;19.73;;;11.40;;
20014;SDS011;61787;42.022;23.078;2023-03-20T06:44:47;21.80;;;11.53;;
20014;SDS011;61787;42.022;23.078;2023-03-20T06:45:48;19.87;;;12.00;;
20014;SDS011;61787;42.022;23.078;2023-03-20T06:46:50;20.70;;;11.90;;
20014;SDS011;61787;42.022;23.078;2023-03-20T06:47:52;25.20;;;11.87;;
20014;SDS011;61787;42.022;23.078;2023-03-20T06:48:53;21.63;;;11.73;;
20014;SDS011;61787;42.022;23.078;2023-03-20T06:49:56;22.33;;;12.73;;